createdAt,value
2022-08-16T00:00:25.761Z,25.23
2022-08-16T00:05:28.495Z,25.18
2022-08-16T00:10:37.231Z,25.03
2022-08-16T00:15:51.561Z,24.87
2022-08-16T00:20:56.180Z,25.00
2022-08-16T00:26:36.160Z,24.98
2022-08-16T00:31:24.119Z,24.91
2022-08-16T00:36:26.660Z,24.82
2022-08-16T00:41:29.641Z,24.95
2022-08-16T00:46:35.610Z,24.99
2022-08-16T00:51:38.656Z,24.99
2022-08-16T00:56:58.420Z,24.95
2022-08-16T01:02:30.913Z,25.09
2022-08-16T01:07:26.390Z,25.25
2022-08-16T01:12:48.578Z,25.30
2022-08-16T01:17:55.971Z,25.34
2022-08-16T01:23:14.546Z,25.37
2022-08-16T01:28:20.526Z,25.21
2022-08-16T01:33:23.613Z,24.98
2022-08-16T01:38:32.341Z,24.98
2022-08-16T01:43:37.717Z,24.98
2022-08-16T01:48:40.350Z,24.72
2022-08-16T01:53:54.632Z,24.71
2022-08-16T01:59:07.716Z,24.46
2022-08-16T02:04:49.302Z,24.48
2022-08-16T02:09:41.926Z,24.41
2022-08-16T02:14:44.875Z,24.39
2022-08-16T02:19:59.113Z,24.13
2022-08-16T02:25:10.924Z,23.94
2022-08-16T02:30:35.777Z,23.87
2022-08-16T02:35:53.969Z,23.83
2022-08-16T02:41:02.704Z,23.73
2022-08-16T02:46:12.009Z,23.70
2022-08-16T02:51:14.080Z,23.64
2022-08-16T02:56:18.640Z,23.71
2022-08-16T03:01:36.404Z,23.70
2022-08-16T03:06:50.483Z,23.59
2022-08-16T03:12:10.930Z,23.54
2022-08-16T03:17:19.592Z,23.76
2022-08-16T03:22:30.525Z,23.68
2022-08-16T03:27:41.129Z,23.75
2022-08-16T03:32:51.630Z,23.86
2022-08-16T03:38:02.753Z,23.79
2022-08-16T03:43:20.624Z,23.74
2022-08-16T03:48:36.716Z,23.79
2022-08-16T03:53:57.708Z,23.82
2022-08-16T03:59:06.341Z,24.04
2022-08-16T04:04:30.929Z,24.38
2022-08-16T04:09:35.929Z,24.56
2022-08-16T04:14:46.882Z,24.62
2022-08-16T04:19:51.803Z,24.72
2022-08-16T04:24:59.320Z,24.80
2022-08-16T04:30:11.014Z,24.98
2022-08-16T04:35:22.849Z,25.08
2022-08-16T04:40:27.418Z,25.33
2022-08-16T04:45:35.552Z,25.38
2022-08-16T04:50:51.141Z,25.32
2022-08-16T04:55:56.512Z,25.68
2022-08-16T05:01:01.034Z,25.84
2022-08-16T05:06:07.034Z,26.20
2022-08-16T05:11:13.097Z,26.32
2022-08-16T05:16:27.561Z,26.60
2022-08-16T05:21:42.206Z,26.82
2022-08-16T05:26:51.256Z,26.86
2022-08-16T05:31:53.861Z,26.89
2022-08-16T05:36:58.745Z,27.08
2022-08-16T05:42:09.168Z,27.11
2022-08-16T05:47:13.983Z,27.09
2022-08-16T05:52:20.862Z,27.11
2022-08-16T05:57:24.458Z,27.49
2022-08-16T06:02:33.557Z,27.71
2022-08-16T06:07:38.434Z,28.03
2022-08-16T06:12:52.681Z,28.39
2022-08-16T06:17:59.283Z,28.33
2022-08-16T06:23:11.627Z,28.00
2022-08-16T06:28:35.658Z,28.00
2022-08-16T06:33:42.354Z,27.76
2022-08-16T06:38:55.673Z,28.15
2022-08-16T06:44:20.943Z,28.15
2022-08-16T06:49:28.500Z,28.34
2022-08-16T06:54:34.617Z,28.64
2022-08-16T06:59:52.110Z,29.01
2022-08-16T07:04:58.169Z,29.14
2022-08-16T07:10:00.557Z,29.12
2022-08-16T07:15:17.076Z,29.34
2022-08-16T07:20:35.684Z,29.39
2022-08-16T07:25:46.420Z,29.60
2022-08-16T07:30:48.993Z,29.26
2022-08-16T07:36:21.902Z,29.45
2022-08-16T07:41:25.597Z,29.39
2022-08-16T07:46:39.538Z,29.45
2022-08-16T07:51:56.764Z,29.66
2022-08-16T07:57:03.988Z,29.98
2022-08-16T08:02:11.885Z,30.31
2022-08-16T08:07:16.773Z,30.36
2022-08-16T08:12:32.628Z,30.22
2022-08-16T08:17:43.976Z,30.22
2022-08-16T08:22:54.110Z,30.24
2022-08-16T08:28:04.949Z,30.41
2022-08-16T08:33:13.878Z,30.34
2022-08-16T08:38:44.010Z,30.23
2022-08-16T08:43:43.023Z,30.12
2022-08-16T08:49:00.037Z,30.13
2022-08-16T08:54:09.761Z,30.20
2022-08-16T08:59:20.337Z,30.55
2022-08-16T09:04:28.306Z,31.21
2022-08-16T09:09:33.740Z,31.27
2022-08-16T09:14:49.524Z,31.06
2022-08-16T09:19:57.235Z,31.09
2022-08-16T09:25:10.107Z,30.74
2022-08-16T09:30:33.655Z,30.64
2022-08-16T09:35:38.842Z,30.76
2022-08-16T09:40:44.054Z,30.96
2022-08-16T09:45:46.950Z,31.18
2022-08-16T09:50:50.801Z,30.84
2022-08-16T09:55:59.141Z,30.49
2022-08-16T10:01:01.200Z,31.00
2022-08-16T10:06:03.338Z,31.56
2022-08-16T10:11:24.878Z,31.23
2022-08-16T10:16:27.120Z,31.15
2022-08-16T10:21:32.129Z,30.81
2022-08-16T10:27:16.445Z,30.69
2022-08-16T10:31:57.755Z,30.47
2022-08-16T10:37:01.227Z,30.18
2022-08-16T10:42:04.258Z,30.09
2022-08-16T10:47:06.454Z,30.05
2022-08-16T10:52:18.749Z,30.06
2022-08-16T10:57:24.550Z,30.00
2022-08-16T11:02:57.694Z,29.88
2022-08-16T11:07:52.346Z,30.86
2022-08-16T11:12:56.528Z,30.67
2022-08-16T11:23:21.464Z,30.91
2022-08-16T11:33:55.324Z,30.72
2022-08-16T11:39:00.382Z,30.78
2022-08-16T11:44:03.292Z,30.47
2022-08-16T11:49:12.701Z,30.38
2022-08-16T11:54:21.250Z,30.20
2022-08-16T11:59:25.360Z,30.99
2022-08-16T12:04:31.467Z,30.41
2022-08-16T12:09:34.511Z,30.19
2022-08-16T12:14:42.109Z,30.13
2022-08-16T12:19:48.822Z,30.40
2022-08-16T12:24:53.583Z,30.70
2022-08-16T12:29:58.303Z,30.71
2022-08-16T12:35:01.831Z,31.27
2022-08-16T12:40:07.456Z,32.32
2022-08-16T12:45:29.062Z,32.34
2022-08-16T12:50:32.972Z,32.78
2022-08-16T12:55:41.625Z,32.90
2022-08-16T13:00:44.507Z,32.57
2022-08-16T13:05:53.471Z,32.02
2022-08-16T13:10:58.865Z,31.53
2022-08-16T13:16:15.313Z,31.43
2022-08-16T13:21:23.743Z,30.47
2022-08-16T13:26:27.855Z,29.90
2022-08-16T13:31:30.161Z,30.25
2022-08-16T13:36:48.827Z,30.12
2022-08-16T13:41:54.492Z,30.28
2022-08-16T13:46:57.409Z,30.12
2022-08-16T13:51:59.487Z,30.24
2022-08-16T13:57:01.939Z,30.34
2022-08-16T14:02:08.782Z,30.62
2022-08-16T14:07:24.318Z,30.57
2022-08-16T14:12:31.474Z,30.61
2022-08-16T14:17:38.425Z,30.41
2022-08-16T14:22:57.092Z,30.70
2022-08-16T14:27:59.522Z,30.74
2022-08-16T14:33:04.366Z,30.50
2022-08-16T14:38:09.063Z,31.05
2022-08-16T14:43:11.007Z,31.13
2022-08-16T14:48:25.106Z,31.25
2022-08-16T14:53:29.239Z,31.56
2022-08-16T14:58:38.104Z,31.55
2022-08-16T15:03:44.752Z,31.58
2022-08-16T15:08:47.213Z,31.86
2022-08-16T15:13:49.932Z,31.64
2022-08-16T15:18:53.889Z,31.53
2022-08-16T15:23:57.133Z,31.67
2022-08-16T15:28:59.168Z,31.93
2022-08-16T15:34:02.192Z,32.15
2022-08-16T15:39:30.457Z,31.76
2022-08-16T15:44:26.944Z,32.07
2022-08-16T15:49:37.688Z,31.94
2022-08-16T15:54:53.102Z,32.41
2022-08-16T16:00:09.907Z,32.30
2022-08-16T16:05:19.664Z,31.93
2022-08-16T16:10:22.011Z,31.68
2022-08-16T16:15:34.971Z,31.61
2022-08-16T16:20:47.659Z,31.88
2022-08-16T16:25:50.231Z,31.99
2022-08-16T16:30:57.007Z,31.99
2022-08-16T16:36:01.103Z,32.18
2022-08-16T16:41:08.892Z,31.56
2022-08-16T16:46:41.091Z,31.58
2022-08-16T16:51:40.842Z,32.24
2022-08-16T16:56:49.557Z,32.53
2022-08-16T17:01:59.508Z,32.42
2022-08-16T17:07:15.535Z,32.11
2022-08-16T17:12:46.332Z,32.02
2022-08-16T17:17:59.654Z,30.62
2022-08-16T17:23:04.178Z,30.92
2022-08-16T17:28:59.800Z,30.60
2022-08-16T17:33:37.164Z,30.00
2022-08-16T17:38:52.342Z,29.75
2022-08-16T17:43:55.700Z,29.27
2022-08-16T17:48:57.861Z,29.04
2022-08-16T17:54:00.095Z,29.11
2022-08-16T17:59:02.301Z,29.02
2022-08-16T18:04:09.639Z,28.74
2022-08-16T18:09:14.899Z,28.68
2022-08-16T18:14:18.959Z,28.55
2022-08-16T18:19:40.943Z,28.75
2022-08-16T18:24:43.161Z,28.49
2022-08-16T18:29:46.545Z,28.34
2022-08-16T18:34:54.485Z,27.00
2022-08-16T18:39:58.084Z,26.86
2022-08-16T18:45:02.335Z,26.76
2022-08-16T18:50:04.733Z,26.61
2022-08-16T18:55:14.484Z,26.33
2022-08-16T19:00:19.747Z,26.26
2022-08-16T19:05:25.277Z,26.16
2022-08-16T19:10:27.369Z,26.20
2022-08-16T19:15:29.694Z,26.27
2022-08-16T19:20:33.108Z,26.25
2022-08-16T19:25:46.861Z,26.19
2022-08-16T19:30:50.836Z,26.19
2022-08-16T19:35:53.108Z,26.84
2022-08-16T19:40:55.384Z,27.16
2022-08-16T19:45:57.511Z,27.20
2022-08-16T19:50:59.655Z,27.11
2022-08-16T19:56:01.649Z,27.12
2022-08-16T20:01:06.295Z,26.16
2022-08-16T20:06:08.516Z,26.01
2022-08-16T20:11:13.371Z,26.15
2022-08-16T20:16:16.374Z,26.67
2022-08-16T20:21:19.250Z,26.53
2022-08-16T20:26:27.176Z,26.65
2022-08-16T20:31:29.250Z,26.58
2022-08-16T20:36:31.247Z,26.64
2022-08-16T20:41:33.759Z,26.54
2022-08-16T20:46:39.012Z,26.38
2022-08-16T20:51:46.928Z,26.28
2022-08-16T20:56:53.040Z,26.26
2022-08-16T21:01:56.755Z,26.04
2022-08-16T21:06:59.388Z,26.08
2022-08-16T21:12:05.312Z,26.01
2022-08-16T21:17:08.608Z,25.95
2022-08-16T21:22:16.891Z,25.92
2022-08-16T21:27:19.783Z,25.86
2022-08-16T21:32:34.910Z,25.83
2022-08-16T21:37:38.867Z,25.61
2022-08-16T21:42:42.545Z,25.64
2022-08-16T21:47:44.780Z,25.58
2022-08-16T21:52:46.745Z,25.51
2022-08-16T21:57:48.705Z,25.51
2022-08-16T22:02:57.727Z,25.56
2022-08-16T22:08:01.677Z,25.60
2022-08-16T22:13:05.569Z,25.64
2022-08-16T22:18:07.709Z,25.54
2022-08-16T22:23:19.090Z,25.42
2022-08-16T22:28:22.646Z,25.51
2022-08-16T22:33:27.134Z,25.51
2022-08-16T22:38:56.285Z,25.40
2022-08-16T22:43:52.396Z,25.25
2022-08-16T22:48:54.661Z,25.49
2022-08-16T22:53:57.679Z,25.65
2022-08-16T22:59:00.221Z,25.81
2022-08-16T23:04:02.477Z,25.74
2022-08-16T23:09:04.743Z,25.66
2022-08-16T23:14:06.772Z,25.68
2022-08-16T23:19:12.281Z,25.64
2022-08-16T23:24:15.805Z,25.56
2022-08-16T23:29:24.109Z,25.48
2022-08-16T23:34:28.940Z,25.33
2022-08-16T23:39:31.429Z,25.04
2022-08-16T23:44:41.933Z,25.14
2022-08-16T23:50:03.151Z,25.23
2022-08-16T23:55:06.518Z,25.28
